Terminal Aerodrome Forecast
Issued by NWS Wilmington, OH

Current Version | Previous Version | Graphics & Text | Print | Product List | Glossary On
Versions: 1 2 3 4 5 6 7 8 9 10 11 12 13 14 15 16 17
914
FTUS41 KILN 250257 AAB
TAFILN
TAF AMD
KILN 250257Z 2503/2524 19008KT P6SM FEW230
     FM250500 20011G22KT P6SM SCT250 WS020/23045KT
     FM250900 22011KT P6SM BKN110
     FM251500 27009KT P6SM BKN030
     FM251900 29010KT P6SM SCT040=

USA.gov is the U.S. government's official web portal to all federal, state and local government web resources and services.